LNI284 WIII-WIDD
Flight info
| Callsign | LNI284 |
|---|---|
| Flight time | N/A |
| Altitude | 32000 |
| Route | DOLTA A585 PLB T25 IGUTU |
| Aircraft | B739/M-SDE2E3FGHIRWXY/LB1 |
Departure
| Time | 2026-05-07 14:33 |
|---|---|
| Airport | Soekarno-Hatta International Airport (WIII) |
Arrival
| Time | N/A |
|---|---|
| Airport | Hang Nadim International Airport (WIDD) |
| Time | Latitude | Longitude | Altitude | Speed | Heading |
|---|---|---|---|---|---|
| 2026-05-07 14:15 | -6.13328 | 106.65647 | 37 ft | 0 kts | 6° |
| 2026-05-07 14:23 | -6.13330 | 106.65647 | 37 ft | 2 kts | 6° |
| 2026-05-07 14:24 | -6.13346 | 106.65646 | 37 ft | 2 kts | 355° |
| 2026-05-07 14:24 | -6.13362 | 106.65650 | 36 ft | 2 kts | 319° |
| 2026-05-07 14:24 | -6.13368 | 106.65664 | 34 ft | 2 kts | 257° |
| 2026-05-07 14:24 | -6.13366 | 106.65671 | 35 ft | 0 kts | 250° |
| 2026-05-07 14:27 | -6.13366 | 106.65670 | 35 ft | 1 kts | 250° |
| 2026-05-07 14:27 | -6.13380 | 106.65638 | 36 ft | 10 kts | 240° |
| 2026-05-07 14:27 | -6.13454 | 106.65638 | 37 ft | 13 kts | 156° |
| 2026-05-07 14:28 | -6.13538 | 106.65657 | 37 ft | 13 kts | 213° |
| 2026-05-07 14:28 | -6.13576 | 106.65578 | 37 ft | 12 kts | 248° |
| 2026-05-07 14:28 | -6.13608 | 106.65496 | 37 ft | 14 kts | 249° |
| 2026-05-07 14:28 | -6.13647 | 106.65396 | 36 ft | 17 kts | 248° |
| 2026-05-07 14:29 | -6.13699 | 106.65271 | 38 ft | 21 kts | 249° |
| 2026-05-07 14:29 | -6.13757 | 106.65121 | 38 ft | 25 kts | 248° |
| 2026-05-07 14:29 | -6.13824 | 106.64953 | 38 ft | 28 kts | 248° |
| 2026-05-07 14:29 | -6.13896 | 106.64776 | 38 ft | 27 kts | 248° |
| 2026-05-07 14:30 | -6.13963 | 106.64607 | 36 ft | 25 kts | 248° |
| 2026-05-07 14:30 | -6.14026 | 106.64451 | 37 ft | 21 kts | 248° |
| 2026-05-07 14:30 | -6.14078 | 106.64327 | 36 ft | 19 kts | 234° |
| 2026-05-07 14:30 | -6.14121 | 106.64302 | 39 ft | 0 kts | 188° |
| 2026-05-07 14:31 | -6.14128 | 106.64301 | 39 ft | 4 kts | 185° |
| 2026-05-07 14:31 | -6.14177 | 106.64317 | 40 ft | 11 kts | 142° |
| 2026-05-07 14:31 | -6.14217 | 106.64408 | 40 ft | 17 kts | 101° |
| 2026-05-07 14:32 | -6.14197 | 106.64505 | 37 ft | 0 kts | 68° |
| 2026-05-07 14:32 | -6.14195 | 106.64509 | 38 ft | 4 kts | 68° |
| 2026-05-07 14:32 | -6.14098 | 106.64750 | 37 ft | 73 kts | 68° |
| 2026-05-07 14:33 | -6.13826 | 106.65432 | 38 ft | 135 kts | 68° |
| 2026-05-07 14:33 | -6.13413 | 106.66469 | 50 ft | 182 kts | 68° |
| 2026-05-07 14:33 | -6.12933 | 106.67673 | 645 ft | 181 kts | 69° |
| 2026-05-07 14:33 | -6.12464 | 106.68841 | 1366 ft | 182 kts | 69° |
| 2026-05-07 14:34 | -6.11958 | 106.70096 | 1655 ft | 206 kts | 69° |
| 2026-05-07 14:34 | -6.11398 | 106.71481 | 2023 ft | 219 kts | 71° |
| 2026-05-07 14:34 | -6.11236 | 106.72993 | 2578 ft | 221 kts | 101° |
| 2026-05-07 14:34 | -6.11862 | 106.74393 | 3213 ft | 224 kts | 128° |
| 2026-05-07 14:35 | -6.13029 | 106.75460 | 3823 ft | 231 kts | 146° |
| 2026-05-07 14:35 | -6.14516 | 106.76074 | 4601 ft | 233 kts | 161° |
| 2026-05-07 14:35 | -6.16128 | 106.76420 | 5110 ft | 250 kts | 180° |
| 2026-05-07 14:35 | -6.17840 | 106.75830 | 5380 ft | 276 kts | 217° |
| 2026-05-07 14:36 | -6.19033 | 106.74325 | 5977 ft | 286 kts | 245° |
| 2026-05-07 14:36 | -6.19480 | 106.72341 | 6659 ft | 292 kts | 271° |
| 2026-05-07 14:36 | -6.19037 | 106.70386 | 7318 ft | 295 kts | 300° |
| 2026-05-07 14:36 | -6.17740 | 106.68807 | 8020 ft | 295 kts | 320° |
| 2026-05-07 14:37 | -6.16113 | 106.67538 | 8704 ft | 298 kts | 326° |
| 2026-05-07 14:37 | -6.12657 | 106.65164 | 10049 ft | 304 kts | 327° |
| 2026-05-07 14:37 | -6.10875 | 106.63939 | 10419 ft | 319 kts | 327° |
| 2026-05-07 14:38 | -6.09017 | 106.62641 | 10784 ft | 331 kts | 326° |
| 2026-05-07 14:38 | -6.07125 | 106.61300 | 11363 ft | 335 kts | 326° |
| 2026-05-07 14:38 | -6.05225 | 106.59939 | 12019 ft | 336 kts | 325° |
| 2026-05-07 14:38 | -6.03322 | 106.58565 | 12680 ft | 338 kts | 325° |
| 2026-05-07 14:39 | -6.01409 | 106.57178 | 13297 ft | 340 kts | 325° |
| 2026-05-07 14:39 | -5.99481 | 106.55775 | 13869 ft | 344 kts | 325° |
| 2026-05-07 14:39 | -5.97535 | 106.54358 | 14391 ft | 347 kts | 325° |
| 2026-05-07 14:39 | -5.95573 | 106.52928 | 14926 ft | 350 kts | 325° |
| 2026-05-07 14:40 | -5.94265 | 106.51974 | 15278 ft | 352 kts | 324° |
| 2026-05-07 14:40 | -5.92276 | 106.50522 | 15797 ft | 355 kts | 325° |
| 2026-05-07 14:40 | -5.90268 | 106.49058 | 16309 ft | 358 kts | 324° |
| 2026-05-07 14:40 | -5.87560 | 106.47082 | 17006 ft | 362 kts | 325° |
| 2026-05-07 14:41 | -5.86206 | 106.46094 | 17343 ft | 364 kts | 325° |
| 2026-05-07 14:41 | -5.84151 | 106.44595 | 17853 ft | 367 kts | 325° |
| 2026-05-07 14:41 | -5.82078 | 106.43084 | 18324 ft | 370 kts | 325° |
| 2026-05-07 14:41 | -5.79990 | 106.41562 | 18765 ft | 372 kts | 325° |
| 2026-05-07 14:42 | -5.77891 | 106.40031 | 19207 ft | 374 kts | 325° |
| 2026-05-07 14:42 | -5.75782 | 106.38493 | 19664 ft | 376 kts | 325° |
| 2026-05-07 14:42 | -5.73662 | 106.36948 | 20101 ft | 378 kts | 325° |
| 2026-05-07 14:42 | -5.71524 | 106.35390 | 20536 ft | 380 kts | 325° |
| 2026-05-07 14:43 | -5.69382 | 106.33829 | 20971 ft | 382 kts | 325° |
| 2026-05-07 14:43 | -5.67223 | 106.32256 | 21394 ft | 384 kts | 325° |
| 2026-05-07 14:43 | -5.65052 | 106.30675 | 21810 ft | 387 kts | 325° |
| 2026-05-07 14:43 | -5.62869 | 106.29084 | 22228 ft | 389 kts | 325° |
| 2026-05-07 14:44 | -5.60672 | 106.27484 | 22652 ft | 391 kts | 325° |
| 2026-05-07 14:44 | -5.58494 | 106.25897 | 23039 ft | 393 kts | 325° |